Time;durP1;ratioP1;P1;durP2;ratioP2;P2;SDS_P1;SDS_P2;PMS_P1;PMS_P2;Temp;Humidity;BMP_temperature;BMP_pressure;BME280_temperature;BME280_humidity;BME280_pressure;Samples;Min_cycle;Max_cycle;Signal;HPM_P1;HPM_P2
2022/07/14 00:01:17;;;;;;;8.00;5.50;;;;;;;19.11;59.89;97960.40;108494;1277;22671;-89
2022/07/14 00:03:46;;;;;;;7.90;4.70;;;;;;;19.03;60.09;97955.63;108354;1277;22575;-88
2022/07/14 00:06:16;;;;;;;6.70;5.20;;;;;;;18.98;59.94;97952.63;108127;1290;22579;-87
2022/07/14 00:08:44;;;;;;;11.20;4.90;;;;;;;18.89;60.32;97949.19;107504;1287;22559;-90
2022/07/14 00:11:12;;;;;;;6.80;4.80;;;;;;;18.79;60.18;97954.79;107165;1288;25337;-91
2022/07/14 00:13:40;;;;;;;8.70;5.40;;;;;;;18.67;60.48;97954.13;107214;1286;22614;-87
2022/07/14 00:16:08;;;;;;;6.50;4.70;;;;;;;18.49;61.04;97957.48;107852;1287;23087;-90
2022/07/14 00:18:43;;;;;;;8.20;4.50;;;;;;;18.42;60.99;97951.94;106809;1287;22800;-80
2022/07/14 00:21:13;;;;;;;7.10;4.20;;;;;;;18.44;64.22;97947.29;104914;1287;22576;-81
2022/07/14 00:23:45;;;;;;;7.10;4.30;;;;;;;18.68;63.97;97946.45;104984;1288;22668;-81
2022/07/14 00:26:13;;;;;;;6.80;4.50;;;;;;;18.94;63.71;97945.34;105162;1287;24278;-83
2022/07/14 00:28:41;;;;;;;5.70;4.10;;;;;;;19.15;63.42;97945.20;105554;1288;25382;-83
2022/07/14 00:31:11;;;;;;;7.10;3.80;;;;;;;19.35;62.47;97947.25;107262;1287;22632;-83
2022/07/14 00:33:40;;;;;;;6.50;4.60;;;;;;;19.47;63.17;97938.92;105323;1287;25253;-83
2022/07/14 00:36:08;;;;;;;9.50;5.00;;;;;;;19.54;62.29;97938.92;105110;1287;25447;-84
2022/07/14 00:38:37;;;;;;;7.60;4.20;;;;;;;19.49;63.16;97939.52;105096;1287;25471;-83
2022/07/14 00:41:05;;;;;;;6.80;4.20;;;;;;;19.65;64.17;97938.40;104626;1288;22916;-82
2022/07/14 00:43:33;;;;;;;6.60;4.70;;;;;;;19.73;63.12;97941.09;104987;1287;22547;-83
2022/07/14 00:46:02;;;;;;;8.60;4.80;;;;;;;19.76;62.87;97938.18;104999;1287;25398;-82
2022/07/14 00:48:30;;;;;;;7.50;4.40;;;;;;;19.77;62.77;97937.13;104767;1288;22565;-83
2022/07/14 00:50:58;;;;;;;6.90;4.30;;;;;;;19.83;63.53;97934.73;105108;1287;22672;-82
2022/07/14 00:53:26;;;;;;;6.80;4.40;;;;;;;19.94;63.38;97933.02;105112;1287;22675;-83
2022/07/14 00:55:54;;;;;;;7.00;4.40;;;;;;;19.99;62.73;97931.79;105146;1287;25430;-83
2022/07/14 00:58:22;;;;;;;6.20;4.10;;;;;;;19.99;62.63;97930.53;105106;1287;24419;-84
2022/07/14 01:00:50;;;;;;;9.10;4.20;;;;;;;20.03;63.20;97933.61;104831;1288;25253;-84
2022/07/14 01:03:19;;;;;;;5.90;4.10;;;;;;;20.08;63.39;97932.52;104808;1287;23954;-83
2022/07/14 01:05:47;;;;;;;7.90;4.80;;;;;;;20.09;62.90;97932.61;105118;1287;22543;-84
2022/07/14 01:08:14;;;;;;;6.50;4.40;;;;;;;20.03;62.27;97932.00;105122;1288;22633;-84
2022/07/14 01:10:42;;;;;;;10.20;5.00;;;;;;;19.93;62.23;97932.53;104866;1287;25379;-83
2022/07/14 01:13:10;;;;;;;6.60;4.80;;;;;;;19.90;62.49;97928.87;105139;1287;24330;-82
2022/07/14 01:15:38;;;;;;;9.60;5.10;;;;;;;19.96;62.55;97929.21;104984;1287;22632;-81
2022/07/14 01:18:06;;;;;;;7.10;4.50;;;;;;;19.93;61.83;97928.08;105003;1287;24506;-82
2022/07/14 01:20:34;;;;;;;7.10;4.70;;;;;;;19.90;61.84;97923.96;104983;1287;22877;-83
2022/07/14 01:23:02;;;;;;;8.70;4.90;;;;;;;19.91;62.27;97926.08;104976;1287;22547;-83
2022/07/14 01:25:31;;;;;;;7.60;4.70;;;;;;;20.00;62.13;97922.36;104932;1287;22889;-83
2022/07/14 01:28:00;;;;;;;5.90;4.60;;;;;;;20.09;61.93;97922.52;104939;1287;22582;-83
2022/07/14 01:30:28;;;;;;;7.80;4.80;;;;;;;20.20;62.27;97916.02;104936;1287;22652;-85
2022/07/14 01:32:56;;;;;;;6.20;4.40;;;;;;;20.30;61.74;97911.38;104969;1286;22602;-84
2022/07/14 01:35:24;;;;;;;8.50;4.80;;;;;;;20.33;61.50;97906.57;104941;1287;25475;-84
2022/07/14 01:37:52;;;;;;;6.00;4.30;;;;;;;20.36;61.42;97909.77;104862;1288;23222;-89
2022/07/14 01:40:20;;;;;;;6.90;4.70;;;;;;;20.41;61.18;97905.33;105003;1287;25432;-85
2022/07/14 01:42:48;;;;;;;5.80;4.40;;;;;;;20.38;60.92;97908.94;105063;1287;24762;-84
2022/07/14 01:45:16;;;;;;;11.80;6.00;;;;;;;20.28;60.81;97907.25;104921;1287;22808;-84
2022/07/14 01:47:44;;;;;;;9.10;4.80;;;;;;;20.18;61.08;97905.76;104871;1288;25489;-84
2022/07/14 01:50:13;;;;;;;6.30;4.30;;;;;;;20.10;60.95;97904.73;104856;1288;25485;-83
2022/07/14 01:52:42;;;;;;;6.80;4.80;;;;;;;20.11;61.55;97900.45;104822;1288;24440;-83
2022/07/14 01:55:10;;;;;;;6.40;4.20;;;;;;;20.11;61.40;97896.00;104491;1289;409635;-83
2022/07/14 01:57:39;;;;;;;5.70;4.20;;;;;;;20.19;61.19;97899.29;105007;1288;22554;-83
2022/07/14 02:00:08;;;;;;;5.60;4.40;;;;;;;20.12;60.52;97899.85;104976;1287;22738;-83
2022/07/14 02:02:44;;;;;;;6.90;5.10;;;;;;;19.98;60.29;97890.04;105021;1287;23037;-83
2022/07/14 02:05:13;;;;;;;6.80;4.30;;;;;;;19.95;60.82;97888.34;104850;1288;25316;-83
2022/07/14 02:07:41;;;;;;;6.90;4.60;;;;;;;19.96;60.59;97888.98;104738;1288;22582;-83
2022/07/14 02:13:24;;;;;;;10.00;5.10;;;;;;;20.18;60.78;97889.81;104792;1287;22583;-83
2022/07/14 02:15:54;;;;;;;6.60;4.20;;;;;;;20.17;60.58;97886.04;104867;1287;26518;-82
2022/07/14 02:18:23;;;;;;;6.30;4.90;;;;;;;20.18;61.05;97884.11;104851;1288;22712;-83
2022/07/14 02:20:51;;;;;;;6.60;4.00;;;;;;;20.29;61.42;97885.30;104983;1287;22694;-83
2022/07/14 02:23:19;;;;;;;8.70;4.90;;;;;;;20.32;60.87;97891.87;104953;1289;23952;-84
2022/07/14 02:25:47;;;;;;;7.30;4.60;;;;;;;20.31;60.95;97893.95;104728;1288;22780;-84
2022/07/14 02:28:16;;;;;;;7.60;4.70;;;;;;;20.32;61.02;97889.67;104950;1287;24224;-84
2022/07/14 02:30:46;;;;;;;7.80;4.80;;;;;;;20.40;61.33;97886.83;104895;1288;24358;-85
2022/07/14 02:33:14;;;;;;;6.20;4.70;;;;;;;20.48;61.00;97882.84;104966;1287;24427;-83
2022/07/14 02:35:42;;;;;;;6.70;4.60;;;;;;;20.46;60.77;97885.00;104747;1288;22720;-83
2022/07/14 02:38:10;;;;;;;6.80;4.80;;;;;;;20.33;60.43;97891.09;104912;1287;23393;-83
2022/07/14 02:40:38;;;;;;;7.40;5.00;;;;;;;20.13;60.53;97889.70;104919;1287;22713;-83
2022/07/14 02:43:06;;;;;;;12.60;5.10;;;;;;;19.96;60.86;97890.55;104905;1287;22631;-83
2022/07/14 02:45:34;;;;;;;9.00;4.90;;;;;;;19.92;61.30;97895.94;104799;1288;26638;-81
2022/07/14 02:48:03;;;;;;;6.30;4.50;;;;;;;19.92;61.65;97898.98;104888;1287;22719;-83
2022/07/14 02:50:31;;;;;;;5.20;4.00;;;;;;;20.00;61.60;97895.48;104915;1287;22704;-82
2022/07/14 02:52:59;;;;;;;8.70;4.90;;;;;;;20.10;61.21;97892.70;105109;1288;22720;-82
2022/07/14 02:55:34;;;;;;;6.90;4.60;;;;;;;20.21;61.68;97892.42;104753;1288;22707;-83
2022/07/14 02:58:03;;;;;;;7.10;4.50;;;;;;;20.39;61.97;97891.13;104853;1288;24297;-83
2022/07/14 03:00:33;;;;;;;6.90;4.80;;;;;;;20.54;61.50;97890.30;104882;1288;25484;-83
2022/07/14 03:03:06;;;;;;;5.90;4.10;;;;;;;20.51;61.01;97890.96;104981;1288;23176;-82
2022/07/14 03:05:34;;;;;;;5.20;4.00;;;;;;;20.41;60.93;97891.63;104843;1288;25351;-83
2022/07/14 03:08:02;;;;;;;7.20;4.60;;;;;;;20.31;61.16;97888.01;104810;1287;25315;-84
2022/07/14 03:10:31;;;;;;;7.50;4.50;;;;;;;20.21;61.15;97883.29;104796;1288;22883;-83
2022/07/14 03:12:59;;;;;;;8.80;4.70;;;;;;;20.13;60.77;97884.85;105033;1287;23223;-83
2022/07/14 03:15:28;;;;;;;5.90;4.20;;;;;;;19.95;60.81;97887.71;104753;1288;25257;-83
2022/07/14 03:17:56;;;;;;;6.70;4.90;;;;;;;19.79;60.91;97896.30;104858;1287;22761;-81
2022/07/14 03:20:24;;;;;;;6.10;4.10;;;;;;;19.62;60.93;97896.00;104847;1287;24409;-82
2022/07/14 03:22:53;;;;;;;6.40;4.50;;;;;;;19.49;60.33;97894.47;104965;1287;22604;-83
2022/07/14 03:25:23;;;;;;;6.20;4.70;;;;;;;19.40;60.41;97896.08;104841;1287;25478;-83
2022/07/14 03:27:51;;;;;;;11.70;4.60;;;;;;;19.34;59.96;97894.08;104750;1288;25327;-84
2022/07/14 03:30:21;;;;;;;6.60;4.30;;;;;;;19.30;59.91;97899.35;104780;1289;22552;-83
2022/07/14 03:32:49;;;;;;;7.80;4.80;;;;;;;19.28;59.83;97903.61;104745;1290;22731;-84
2022/07/14 03:35:17;;;;;;;7.50;4.50;;;;;;;19.27;59.85;97907.66;104842;1288;24244;-83
2022/07/14 03:37:46;;;;;;;7.70;4.40;;;;;;;19.31;60.27;97902.35;104769;1288;22703;-83
2022/07/14 03:40:33;;;;;;;6.50;3.90;;;;;;;19.45;60.10;97898.30;104974;1287;25319;-83
2022/07/14 03:43:01;;;;;;;7.70;4.30;;;;;;;19.49;59.70;97901.58;104915;1287;22598;-84
2022/07/14 03:45:30;;;;;;;5.40;4.30;;;;;;;19.53;60.01;97897.30;105010;1287;22781;-83
2022/07/14 03:47:59;;;;;;;5.90;4.30;;;;;;;19.67;60.00;97899.16;104893;1287;26586;-85
2022/07/14 03:50:27;;;;;;;7.30;4.20;;;;;;;19.70;59.77;97897.37;104975;1287;22716;-84
2022/07/14 03:52:56;;;;;;;7.10;4.50;;;;;;;19.77;59.54;97893.61;104813;1288;23617;-83
2022/07/14 03:55:25;;;;;;;6.60;4.60;;;;;;;19.70;59.14;97897.84;104833;1287;26657;-83
2022/07/14 03:57:53;;;;;;;6.30;4.60;;;;;;;19.62;59.09;97895.39;104757;1290;25368;-84
2022/07/14 04:00:21;;;;;;;5.80;4.30;;;;;;;19.57;59.46;97896.59;104719;1290;25438;-85
2022/07/14 04:02:49;;;;;;;7.20;4.70;;;;;;;19.73;60.27;97888.13;105193;1287;22812;-84
2022/07/14 04:05:23;;;;;;;8.90;4.80;;;;;;;19.78;59.70;97895.97;104959;1287;22785;-83
2022/07/14 04:07:55;;;;;;;7.40;5.00;;;;;;;19.84;60.33;97893.11;104708;1288;22782;-83
2022/07/14 04:10:31;;;;;;;8.40;4.70;;;;;;;19.82;59.83;97897.70;105031;1288;22699;-83
2022/07/14 04:13:00;;;;;;;6.20;4.70;;;;;;;19.82;60.35;97892.45;104999;1287;22559;-83
2022/07/14 04:15:29;;;;;;;10.00;6.00;;;;;;;19.95;60.16;97888.50;104772;1288;23221;-83
2022/07/14 04:17:58;;;;;;;10.50;4.80;;;;;;;19.94;60.35;97887.94;105027;1287;24225;-83
2022/07/14 04:20:28;;;;;;;10.20;5.40;;;;;;;20.06;60.04;97885.04;105006;1287;22725;-84
2022/07/14 04:22:55;;;;;;;8.70;5.80;;;;;;;20.11;59.63;97882.40;105002;1287;22570;-83
2022/07/14 04:25:24;;;;;;;8.90;6.10;;;;;;;20.09;59.39;97881.19;104986;1287;25499;-83
2022/07/14 04:27:53;;;;;;;11.30;6.20;;;;;;;20.09;59.45;97885.02;104989;1287;25470;-83
2022/07/14 04:30:22;;;;;;;9.90;6.30;;;;;;;20.06;59.25;97893.01;104850;1288;22689;-83
2022/07/14 04:32:51;;;;;;;7.60;5.20;;;;;;;19.99;59.19;97893.12;105007;1287;23422;-83
2022/07/14 04:35:20;;;;;;;6.20;4.60;;;;;;;20.03;59.30;97888.11;105040;1287;25368;-83
2022/07/14 04:37:49;;;;;;;8.30;5.10;;;;;;;20.12;59.52;97888.05;105027;1287;24378;-84
2022/07/14 04:40:29;;;;;;;7.50;4.80;;;;;;;20.23;59.09;97889.27;104915;1288;24301;-83
2022/07/14 04:42:58;;;;;;;10.30;4.80;;;;;;;20.25;58.81;97894.23;104862;1289;24230;-83
2022/07/14 04:45:27;;;;;;;8.40;4.50;;;;;;;20.24;58.55;97897.98;105192;1287;22675;-85
2022/07/14 04:47:55;;;;;;;6.30;4.40;;;;;;;20.27;58.93;97900.44;106091;1287;22703;-83
2022/07/14 04:53:10;;;;;;;9.20;4.70;;;;;;;20.28;58.78;97898.66;106685;1287;22598;-84
2022/07/14 04:55:53;;;;;;;13.90;8.60;;;;;;;20.31;58.73;97904.11;105034;1287;25396;-83
2022/07/14 04:58:34;;;;;;;8.60;4.30;;;;;;;20.33;58.44;97906.34;104976;1288;25357;-83
2022/07/14 05:01:04;;;;;;;9.30;6.30;;;;;;;20.39;58.53;97902.92;105110;1287;22618;-83
2022/07/14 05:03:36;;;;;;;13.70;7.80;;;;;;;20.47;58.13;97897.53;104834;1288;22568;-83
2022/07/14 05:06:05;;;;;;;12.10;6.60;;;;;;;20.55;57.97;97901.23;104838;1288;22814;-83
2022/07/14 05:08:33;;;;;;;12.80;5.00;;;;;;;20.68;57.77;97900.73;105031;1287;24594;-82
2022/07/14 05:11:04;;;;;;;15.30;5.10;;;;;;;20.75;56.76;97906.65;105008;1287;22575;-83
2022/07/14 05:13:32;;;;;;;6.30;4.30;;;;;;;20.81;56.57;97906.89;104874;1290;25324;-83
2022/07/14 05:16:01;;;;;;;8.40;4.10;;;;;;;20.83;55.52;97903.65;104783;1288;24195;-84
2022/07/14 05:18:30;;;;;;;7.70;4.30;;;;;;;20.83;55.22;97903.42;104831;1288;22613;-84
2022/07/14 05:20:58;;;;;;;11.60;5.50;;;;;;;20.90;55.48;97898.74;104694;1288;25330;-84
2022/07/14 05:23:31;;;;;;;11.40;5.50;;;;;;;20.98;54.65;97903.57;104842;1287;25382;-84
2022/07/14 05:25:59;;;;;;;9.70;4.90;;;;;;;21.04;54.03;97903.82;104584;1289;22858;-84
2022/07/14 05:28:28;;;;;;;11.80;4.90;;;;;;;21.09;54.20;97908.83;104978;1287;23985;-84
2022/07/14 05:30:58;;;;;;;11.80;4.80;;;;;;;21.16;53.73;97911.66;104748;1290;25477;-84
2022/07/14 05:33:39;;;;;;;12.70;6.00;;;;;;;21.17;53.38;97905.27;104809;1288;25344;-82
2022/07/14 05:36:08;;;;;;;12.30;5.50;;;;;;;21.23;53.21;97905.13;104733;1290;22571;-83
2022/07/14 05:38:36;;;;;;;16.60;7.20;;;;;;;21.30;53.31;97906.33;104805;1288;24327;-82
2022/07/14 05:41:04;;;;;;;8.90;4.40;;;;;;;21.40;52.99;97910.10;104851;1287;24234;-83
2022/07/14 05:43:32;;;;;;;13.90;4.80;;;;;;;21.47;53.30;97906.67;104850;1287;22573;-82
2022/07/14 05:46:08;;;;;;;7.90;4.00;;;;;;;21.57;53.35;97906.41;105061;1287;25487;-82
2022/07/14 05:48:38;;;;;;;7.70;4.20;;;;;;;21.62;52.79;97905.46;105082;1287;25430;-83
2022/07/14 05:51:15;;;;;;;21.00;6.00;;;;;;;21.67;52.71;97906.87;104601;1290;22793;-84
2022/07/14 05:53:48;;;;;;;11.60;4.30;;;;;;;21.74;52.77;97909.01;104723;1288;22576;-82
2022/07/14 05:56:18;;;;;;;8.10;4.40;;;;;;;21.66;52.39;97893.37;104971;1289;25465;-84
2022/07/14 05:58:48;;;;;;;10.40;5.10;;;;;;;21.78;52.69;97911.17;104824;1288;23944;-85
2022/07/14 06:01:20;;;;;;;17.30;7.00;;;;;;;21.78;52.38;97908.50;105306;1287;22616;-84
2022/07/14 06:03:53;;;;;;;12.30;6.10;;;;;;;21.74;52.13;97910.34;105368;1287;25415;-83
2022/07/14 06:06:22;;;;;;;11.10;4.80;;;;;;;21.67;51.90;97908.44;104963;1287;22569;-86
2022/07/14 06:08:50;;;;;;;9.00;4.30;;;;;;;21.60;52.02;97906.38;104744;1287;25427;-84
2022/07/14 06:11:18;;;;;;;12.30;5.30;;;;;;;21.56;52.12;97900.61;104862;1291;24384;-84
2022/07/14 06:13:47;;;;;;;10.10;4.80;;;;;;;21.53;52.38;97900.35;105055;1287;22674;-84
2022/07/14 06:16:16;;;;;;;10.00;4.50;;;;;;;21.55;52.45;97896.29;104920;1288;22603;-84
2022/07/14 06:18:44;;;;;;;14.00;5.40;;;;;;;21.57;52.42;97898.66;104899;1288;22713;-84
2022/07/14 06:21:13;;;;;;;12.50;4.60;;;;;;;21.57;52.56;97898.98;105482;1287;25928;-84
2022/07/14 06:23:41;;;;;;;8.60;3.90;;;;;;;21.65;52.59;97902.06;105330;1288;23313;-83
2022/07/14 06:26:11;;;;;;;7.20;3.60;;;;;;;21.76;52.80;97903.92;104830;1287;24235;-83
2022/07/14 06:28:41;;;;;;;11.40;5.10;;;;;;;21.88;52.38;97910.10;104843;1290;22757;-83
2022/07/14 06:31:09;;;;;;;13.20;5.60;;;;;;;21.99;52.32;97911.42;105038;1287;25539;-84
2022/07/14 06:33:37;;;;;;;14.50;5.20;;;;;;;22.12;52.42;97904.20;104639;1290;22559;-84
2022/07/14 06:36:22;;;;;;;6.30;3.90;;;;;;;22.20;52.42;97902.73;104899;1287;22594;-83
2022/07/14 06:38:50;;;;;;;12.30;4.20;;;;;;;22.19;51.95;97905.33;104986;1287;22587;-84
2022/07/14 06:41:20;;;;;;;9.40;4.60;;;;;;;22.25;52.01;97908.21;104883;1287;25397;-84
2022/07/14 06:43:49;;;;;;;7.30;3.80;;;;;;;22.28;51.93;97910.20;104559;1294;23226;-84
2022/07/14 06:46:17;;;;;;;7.40;4.30;;;;;;;22.38;51.80;97907.72;104766;1287;25372;-84
2022/07/14 06:48:45;;;;;;;11.30;4.50;;;;;;;22.43;51.93;97905.81;104824;1288;25453;-83
2022/07/14 06:51:14;;;;;;;8.80;5.00;;;;;;;22.56;51.96;97908.14;105033;1287;25496;-83
2022/07/14 06:53:42;;;;;;;8.10;4.20;;;;;;;22.72;51.69;97910.72;104861;1288;25477;-83
2022/07/14 06:56:10;;;;;;;7.80;4.40;;;;;;;22.76;51.89;97911.08;104817;1290;22812;-83
2022/07/14 06:58:38;;;;;;;9.60;5.00;;;;;;;22.79;51.86;97914.31;104890;1287;24440;-83
2022/07/14 07:01:06;;;;;;;8.50;4.60;;;;;;;22.79;52.13;97912.12;104853;1288;25462;-84
2022/07/14 07:03:35;;;;;;;10.30;5.40;;;;;;;22.80;52.08;97912.59;104827;1287;25465;-83
2022/07/14 07:08:51;;;;;;;10.30;5.20;;;;;;;22.85;52.11;97909.90;104899;1287;22544;-84
2022/07/14 07:11:19;;;;;;;9.80;4.30;;;;;;;22.92;52.11;97914.41;104757;1290;22804;-85
2022/07/14 07:13:47;;;;;;;13.20;5.30;;;;;;;22.91;52.07;97913.86;104971;1287;24388;-84
2022/07/14 07:16:15;;;;;;;7.90;4.90;;;;;;;22.92;51.72;97912.08;105155;1287;23005;-84
2022/07/14 07:18:43;;;;;;;12.80;5.50;;;;;;;22.98;51.44;97914.02;104829;1288;24459;-84
2022/07/14 07:21:14;;;;;;;14.00;5.80;;;;;;;23.05;50.86;97906.55;104877;1289;22584;-84
2022/07/14 07:23:45;;;;;;;10.60;5.20;;;;;;;23.15;50.76;97906.94;105156;1287;22679;-83
2022/07/14 07:26:14;;;;;;;12.50;4.50;;;;;;;23.27;50.76;97908.83;105160;1287;24259;-83
2022/07/14 07:28:43;;;;;;;8.40;4.50;;;;;;;23.37;50.48;97902.61;105132;1287;22772;-82
2022/07/14 07:31:11;;;;;;;8.90;4.30;;;;;;;23.47;50.36;97902.03;105041;1287;25377;-84
2022/07/14 07:33:40;;;;;;;6.20;3.90;;;;;;;23.55;50.09;97904.83;105087;1287;22752;-85
2022/07/14 07:36:08;;;;;;;8.40;4.00;;;;;;;23.63;50.07;97910.69;105102;1287;24395;-84
2022/07/14 07:38:36;;;;;;;10.00;4.20;;;;;;;23.67;50.05;97905.84;105201;1287;25265;-84
2022/07/14 07:41:04;;;;;;;12.50;4.60;;;;;;;23.78;50.33;97900.48;105773;1287;25265;-84
2022/07/14 07:43:32;;;;;;;7.50;3.50;;;;;;;23.94;49.95;97899.77;105878;1287;23309;-83
2022/07/14 07:46:02;;;;;;;9.40;3.50;;;;;;;24.04;49.33;97899.58;105563;1287;25381;-83
2022/07/14 07:48:31;;;;;;;15.10;4.00;;;;;;;24.14;49.11;97895.98;105727;1287;24761;-85
2022/07/14 07:51:00;;;;;;;9.00;3.70;;;;;;;24.27;49.17;97895.64;105465;1287;25497;-84
2022/07/14 07:53:28;;;;;;;9.40;3.60;;;;;;;24.40;49.22;97891.82;105338;1287;25369;-84
2022/07/14 07:55:56;;;;;;;10.20;4.60;;;;;;;24.47;48.80;97897.52;104884;1288;24122;-85
2022/07/14 07:58:24;;;;;;;10.80;4.00;;;;;;;24.59;48.42;97899.11;105244;1287;24458;-85
2022/07/14 08:00:51;;;;;;;13.50;4.60;;;;;;;24.73;47.83;97894.55;105206;1287;23524;-85
2022/07/14 08:03:19;;;;;;;12.00;3.90;;;;;;;24.90;47.85;97899.36;105189;1287;25539;-85
2022/07/14 08:05:47;;;;;;;6.00;3.80;;;;;;;24.98;47.28;97903.54;105113;1287;22704;-85
2022/07/14 08:08:35;;;;;;;8.10;3.50;;;;;;;24.85;46.80;97895.11;105177;1287;24276;-85
2022/07/14 08:11:03;;;;;;;9.10;3.30;;;;;;;24.85;46.89;97898.49;104948;1288;22698;-84
2022/07/14 08:13:32;;;;;;;7.40;3.10;;;;;;;24.84;47.00;97892.42;104959;1288;26639;-85
2022/07/14 08:16:00;;;;;;;8.10;3.10;;;;;;;24.91;46.85;97892.13;104997;1287;22604;-84
2022/07/14 08:18:28;;;;;;;9.60;3.50;;;;;;;24.99;47.16;97890.94;104929;1287;22710;-84
2022/07/14 08:20:56;;;;;;;7.80;3.10;;;;;;;25.09;46.90;97895.65;104924;1288;22692;-84
2022/07/14 08:23:26;;;;;;;9.20;3.70;;;;;;;25.11;46.27;97895.81;104987;1287;22553;-83
2022/07/14 08:25:54;;;;;;;8.50;3.50;;;;;;;25.14;46.09;97894.02;104950;1288;22546;-83
2022/07/14 08:28:22;;;;;;;7.50;3.60;;;;;;;25.21;46.11;97895.20;104958;1288;24373;-83
2022/07/14 08:30:50;;;;;;;9.20;3.60;;;;;;;25.19;46.10;97894.25;104916;1288;25366;-83
2022/07/14 08:33:18;;;;;;;5.30;3.30;;;;;;;25.25;45.93;97890.63;104972;1288;25344;-84
2022/07/14 08:35:47;;;;;;;10.40;4.00;;;;;;;25.32;46.40;97886.11;104914;1288;22584;-84
2022/07/14 08:38:15;;;;;;;12.20;4.60;;;;;;;25.48;46.34;97890.66;105019;1288;22582;-84
2022/07/14 08:40:43;;;;;;;6.70;2.80;;;;;;;25.66;45.96;97890.91;104988;1287;22716;-84
2022/07/14 08:43:13;;;;;;;7.70;3.40;;;;;;;25.77;45.11;97888.52;105232;1288;22585;-85
2022/07/14 08:45:42;;;;;;;7.00;3.30;;;;;;;25.82;44.35;97891.19;105315;1287;22579;-84
2022/07/14 08:48:11;;;;;;;11.90;4.50;;;;;;;25.76;43.98;97881.98;105004;1287;22744;-83
2022/07/14 08:50:39;;;;;;;13.30;5.30;;;;;;;25.82;43.66;97882.52;105074;1287;24445;-83
2022/07/14 08:53:09;;;;;;;6.00;3.60;;;;;;;25.86;42.73;97888.59;104967;1288;24439;-83
2022/07/14 08:55:37;;;;;;;9.20;3.70;;;;;;;25.89;42.98;97884.39;105178;1287;22592;-85
2022/07/14 08:58:05;;;;;;;12.90;6.60;;;;;;;25.89;43.31;97882.98;104985;1288;23156;-85
2022/07/14 09:00:33;;;;;;;8.80;4.00;;;;;;;25.92;43.82;97877.45;104834;1288;22643;-85
2022/07/14 09:03:02;;;;;;;7.00;3.70;;;;;;;26.00;43.35;97875.83;104932;1287;23180;-84
2022/07/14 09:05:44;;;;;;;12.30;3.80;;;;;;;26.05;43.58;97866.88;104995;1287;22580;-85
2022/07/14 09:08:13;;;;;;;8.40;3.30;;;;;;;26.14;43.62;97861.63;105054;1287;22578;-86
2022/07/14 09:10:45;;;;;;;9.00;3.30;;;;;;;26.23;42.75;97865.69;104885;1287;22569;-85
2022/07/14 09:13:33;;;;;;;9.50;3.00;;;;;;;26.21;42.39;97862.77;105094;1287;22563;-85
2022/07/14 09:16:19;;;;;;;6.10;3.10;;;;;;;26.17;42.52;97862.95;105202;1287;25359;-87
2022/07/14 09:19:07;;;;;;;6.90;3.60;;;;;;;26.22;42.99;97872.63;105019;1287;22896;-85
2022/07/14 09:21:42;;;;;;;7.90;3.50;;;;;;;26.19;41.93;97853.94;104995;1287;23939;-86
2022/07/14 09:24:12;;;;;;;6.80;3.60;;;;;;;26.31;41.60;97884.65;104886;1288;22697;-85
2022/07/14 09:26:46;;;;;;;8.40;3.60;;;;;;;26.29;41.25;97879.45;105026;1287;22861;-83
2022/07/14 09:29:25;;;;;;;6.50;3.80;;;;;;;26.32;40.74;97883.16;105173;1287;22587;-83
2022/07/14 09:31:56;;;;;;;8.80;3.40;;;;;;;26.27;41.35;97882.38;104872;1287;22557;-83
2022/07/14 09:34:32;;;;;;;5.90;3.50;;;;;;;26.42;41.29;97888.07;105119;1287;25561;-83
2022/07/14 09:37:09;;;;;;;;;;;;;;;26.50;40.95;97885.26;104977;1287;22542;-84
2022/07/14 09:39:56;;;;;;;5.00;3.20;;;;;;;26.60;41.28;97885.05;105025;1288;22584;-84
2022/07/14 09:42:58;;;;;;;10.30;3.50;;;;;;;26.68;40.99;97880.42;105004;1287;25257;-84
2022/07/14 09:45:32;;;;;;;5.90;3.10;;;;;;;26.66;40.98;97877.58;104956;1287;23981;-84
2022/07/14 09:48:02;;;;;;;6.30;3.30;;;;;;;26.71;41.57;97879.83;105137;1287;23949;-83
2022/07/14 09:50:38;;;;;;;8.70;3.40;;;;;;;26.81;40.89;97876.77;105080;1287;22662;-85
2022/07/14 09:53:13;;;;;;;8.70;3.70;;;;;;;26.87;40.64;97878.59;106364;1287;26612;-85
2022/07/14 09:55:46;;;;;;;7.10;3.50;;;;;;;26.88;40.35;97868.23;105091;1287;22646;-84
2022/07/14 09:58:15;;;;;;;8.10;3.60;;;;;;;26.80;40.35;97871.95;105089;1287;25681;-83
2022/07/14 10:00:43;;;;;;;10.00;3.50;;;;;;;26.79;40.57;97866.75;104984;1288;25372;-85
2022/07/14 10:03:11;;;;;;;8.70;3.40;;;;;;;26.88;40.88;97863.03;105061;1287;22705;-85
2022/07/14 10:05:39;;;;;;;7.10;3.30;;;;;;;27.04;41.04;97858.86;105050;1287;22586;-83
2022/07/14 10:08:09;;;;;;;5.50;3.20;;;;;;;27.15;40.74;97859.48;104919;1287;22894;-83
2022/07/14 10:10:38;;;;;;;8.80;3.60;;;;;;;27.22;40.05;97860.77;104936;1287;22562;-83
2022/07/14 10:13:06;;;;;;;6.90;3.40;;;;;;;27.10;39.32;97856.42;105012;1287;22570;-82
2022/07/14 10:15:39;;;;;;;10.90;4.00;;;;;;;26.95;40.14;97856.48;104985;1287;22559;-83
2022/07/14 10:18:07;;;;;;;10.90;3.20;;;;;;;26.99;40.25;97854.73;105015;1287;25643;-84
2022/07/14 10:20:38;;;;;;;6.80;3.30;;;;;;;27.14;40.14;97849.15;105032;1287;22755;-83
2022/07/14 10:23:07;;;;;;;9.50;3.60;;;;;;;27.24;39.59;97851.81;105074;1287;22585;-83
2022/07/14 10:25:35;;;;;;;10.80;3.50;;;;;;;27.28;39.73;97842.92;105074;1287;23995;-84
2022/07/14 10:28:04;;;;;;;7.40;3.90;;;;;;;27.44;39.59;97847.34;105305;1287;24258;-84
2022/07/14 10:30:41;;;;;;;8.80;3.50;;;;;;;27.53;39.59;97850.64;105130;1287;22646;-82
2022/07/14 10:33:20;;;;;;;15.50;4.00;;;;;;;27.61;39.19;97843.74;105052;1287;24223;-83
2022/07/14 10:36:13;;;;;;;9.80;3.20;;;;;;;27.72;38.88;97837.20;105005;1287;23223;-83
2022/07/14 10:38:53;;;;;;;6.40;3.40;;;;;;;27.71;38.97;97844.89;105139;1287;23177;-83
2022/07/14 10:41:31;;;;;;;8.10;3.20;;;;;;;27.67;38.71;97841.52;105188;1287;22591;-83
2022/07/14 10:44:22;;;;;;;9.00;3.30;;;;;;;27.55;38.47;97836.53;104928;1288;22578;-83
2022/07/14 10:47:04;;;;;;;8.70;3.10;;;;;;;27.43;38.95;97837.31;105118;1287;22725;-83
2022/07/14 10:50:21;;;;;;;5.20;3.00;;;;;;;27.26;38.83;97831.01;105100;1287;25414;-83
2022/07/14 10:52:59;;;;;;;8.80;3.30;;;;;;;26.99;38.97;97833.38;104148;1296;24403;-84
2022/07/14 10:55:27;;;;;;;7.00;3.00;;;;;;;27.09;39.68;97831.64;104265;1297;25611;-83
2022/07/14 10:58:03;;;;;;;6.60;3.40;;;;;;;27.36;39.49;97830.67;105134;1297;26007;-83
2022/07/14 11:00:55;;;;;;;7.20;3.20;;;;;;;27.58;39.05;97826.14;104339;1297;22799;-83
2022/07/14 11:03:50;;;;;;;7.00;3.20;;;;;;;27.91;39.16;97814.04;104073;1297;25270;-82
2022/07/14 11:06:19;;;;;;;6.20;2.60;;;;;;;28.21;38.67;97818.45;104137;1295;25019;-82
2022/07/14 11:09:20;;;;;;;4.70;2.70;;;;;;;28.31;38.03;97813.46;104313;1296;23326;-82
2022/07/14 11:12:07;;;;;;;4.50;2.70;;;;;;;28.29;37.39;97811.12;104175;1297;23505;-83
2022/07/14 11:14:40;;;;;;;5.50;2.50;;;;;;;28.39;37.05;97803.16;104186;1295;25450;-83
2022/07/14 11:17:39;;;;;;;7.40;2.60;;;;;;;28.47;36.55;97806.44;104021;1297;25338;-83
2022/07/14 11:20:10;;;;;;;7.90;2.90;;;;;;;28.51;36.74;97802.02;104062;1297;22602;-82
2022/07/14 11:22:40;;;;;;;5.70;2.90;;;;;;;28.65;36.78;97798.61;104262;1297;26127;-83
2022/07/14 11:25:24;;;;;;;7.10;2.70;;;;;;;28.68;36.34;97803.00;104384;1297;23278;-83
2022/07/14 11:27:52;;;;;;;;;;;;;;;28.51;36.48;97806.85;104367;1297;24399;-84
2022/07/14 11:30:26;;;;;;;4.90;2.40;;;;;;;28.48;36.46;97809.49;104636;1288;23360;-84
2022/07/14 11:33:02;;;;;;;8.50;3.00;;;;;;;28.28;36.68;97807.73;105229;1287;22681;-82
2022/07/14 11:38:43;;;;;;;7.30;3.00;;;;;;;27.87;37.59;97806.89;105243;1287;23216;-83
2022/07/14 11:41:15;;;;;;;4.50;2.70;;;;;;;27.62;37.90;97811.94;105181;1287;22597;-86
2022/07/14 11:43:46;;;;;;;4.80;2.60;;;;;;;27.45;37.78;97808.83;105184;1287;24153;-82
2022/07/14 11:46:20;;;;;;;8.00;2.70;;;;;;;27.36;38.17;97806.07;105215;1287;24319;-84
2022/07/14 11:48:53;;;;;;;5.90;2.60;;;;;;;27.36;38.44;97802.04;105161;1287;25520;-82
2022/07/14 11:51:24;;;;;;;3.90;2.70;;;;;;;27.33;38.67;97797.64;105234;1287;22723;-82
2022/07/14 11:53:55;;;;;;;7.60;3.00;;;;;;;27.23;38.88;97796.27;105334;1287;22584;-82